Time;durP1;ratioP1;P1;durP2;ratioP2;P2;SDS_P1;SDS_P2;PMS_P1;PMS_P2;Temp;Humidity;BMP_temperature;BMP_pressure;BME280_temperature;BME280_humidity;BME280_pressure;Samples;Min_cycle;Max_cycle;Signal;HPM_P1;HPM_P2
2022/05/22 00:00:32;;;;;;;52.67;14.40;;;29.50;89.30;;;;;;5084033;28;20024;-46
2022/05/22 00:02:59;;;;;;;47.42;12.85;;;29.40;89.50;;;;;;5083980;28;20052;-50
2022/05/22 00:05:26;;;;;;;52.38;13.93;;;29.30;89.60;;;;;;5083910;28;20016;-43
2022/05/22 00:07:53;;;;;;;51.17;12.82;;;29.30;89.10;;;;;;5086526;28;20024;-45
2022/05/22 00:10:20;;;;;;;42.42;12.63;;;29.20;89.30;;;;;;5104292;28;20312;-45
2022/05/22 00:12:48;;;;;;;45.42;12.43;;;29.10;89.10;;;;;;5102632;28;20028;-48
2022/05/22 00:15:17;;;;;;;50.05;12.88;;;29.20;89.00;;;;;;5095439;28;20081;-53
2022/05/22 00:17:44;;;;;;;59.03;13.07;;;29.10;88.50;;;;;;5083516;28;20028;-59
2022/05/22 00:20:12;;;;;;;58.80;12.95;;;29.30;88.10;;;;;;5081802;28;20016;-50
2022/05/22 00:22:39;;;;;;;52.63;12.43;;;29.40;88.00;;;;;;5082226;28;20017;-55
2022/05/22 00:25:10;;;;;;;51.10;12.90;;;29.50;87.70;;;;;;5083622;28;20028;-49
2022/05/22 00:27:37;;;;;;;53.87;13.37;;;29.50;87.50;;;;;;5083732;28;20025;-48
2022/05/22 00:30:04;;;;;;;53.33;12.15;;;29.60;87.30;;;;;;5083971;28;20016;-48
2022/05/22 00:32:31;;;;;;;50.17;12.25;;;29.60;86.90;;;;;;5084012;28;20087;-46
2022/05/22 00:34:58;;;;;;;47.45;11.50;;;29.70;86.60;;;;;;5082682;28;20048;-48
2022/05/22 00:37:24;;;;;;;54.90;12.82;;;29.60;86.40;;;;;;5084003;28;20017;-54
2022/05/22 00:39:51;;;;;;;46.65;11.75;;;29.60;86.30;;;;;;5083944;28;20017;-56
2022/05/22 00:42:20;;;;;;;53.85;11.95;;;29.70;86.30;;;;;;5083571;28;20032;-57
2022/05/22 00:44:48;;;;;;;51.55;12.00;;;29.70;86.20;;;;;;5083873;28;20016;-54
2022/05/22 00:47:15;;;;;;;48.40;11.00;;;29.70;85.80;;;;;;5083586;28;20013;-51
2022/05/22 00:49:43;;;;;;;49.63;12.00;;;29.70;85.80;;;;;;5083581;28;20027;-51
2022/05/22 00:52:26;;;;;;;49.33;12.20;;;29.70;85.70;;;;;;5083562;28;20035;-52
2022/05/22 00:55:01;;;;;;;46.60;12.20;;;29.60;85.60;;;;;;5083221;28;20025;-50
2022/05/22 00:57:42;;;;;;;51.33;12.48;;;29.60;85.40;;;;;;5083833;28;20023;-47
2022/05/22 01:00:21;;;;;;;49.95;12.63;;;29.70;85.40;;;;;;5083425;28;20019;-50
2022/05/22 01:05:37;;;;;;;44.53;11.57;;;29.60;85.30;;;;;;5083671;28;20031;-57
2022/05/22 01:08:04;;;;;;;50.63;12.13;;;29.60;85.10;;;;;;5083581;28;20036;-53
2022/05/22 01:10:58;;;;;;;43.00;12.43;;;29.60;85.10;;;;;;5083545;28;20063;-52
2022/05/22 01:13:32;;;;;;;51.58;13.15;;;29.60;84.90;;;;;;5078371;28;20036;-47
2022/05/22 01:15:59;;;;;;;53.17;12.90;;;29.60;84.90;;;;;;5083415;28;20012;-54
2022/05/22 01:18:27;;;;;;;51.58;13.75;;;29.50;84.80;;;;;;5087570;28;20074;-47
2022/05/22 01:20:54;;;;;;;61.00;13.40;;;29.60;84.80;;;;;;5087502;28;20062;-51
2022/05/22 01:23:23;;;;;;;57.60;13.35;;;29.50;84.60;;;;;;5086027;28;20248;-50
2022/05/22 01:25:50;;;;;;;54.42;13.88;;;29.50;84.40;;;;;;5087304;28;20027;-56
2022/05/22 01:28:19;;;;;;;48.92;12.45;;;29.50;84.40;;;;;;5087417;28;20081;-49
2022/05/22 01:30:45;;;;;;;48.30;12.93;;;29.50;84.40;;;;;;5085861;28;20012;-46
2022/05/22 01:33:13;;;;;;;46.90;12.57;;;29.50;84.30;;;;;;5087997;28;20024;-52
2022/05/22 01:35:40;;;;;;;50.45;12.05;;;29.50;84.30;;;;;;5087101;28;20013;-54
2022/05/22 01:38:10;;;;;;;47.97;11.68;;;29.40;84.10;;;;;;5085733;28;20024;-51
2022/05/22 01:40:37;;;;;;;45.05;11.25;;;29.50;84.10;;;;;;5085974;28;20251;-50
2022/05/22 01:43:04;;;;;;;48.83;11.52;;;29.40;84.00;;;;;;5085973;28;20029;-50
2022/05/22 01:45:31;;;;;;;48.50;11.70;;;29.40;84.00;;;;;;5086790;28;20117;-49
2022/05/22 01:47:58;;;;;;;41.75;11.20;;;29.40;83.70;;;;;;5086884;28;20096;-53
2022/05/22 01:50:24;;;;;;;43.75;11.38;;;29.40;83.60;;;;;;5086866;28;20013;-57
2022/05/22 01:52:51;;;;;;;43.95;12.38;;;29.40;83.50;;;;;;5086726;28;20025;-45
2022/05/22 01:55:17;;;;;;;44.15;12.23;;;29.40;83.40;;;;;;5086720;28;20088;-49
2022/05/22 01:57:45;;;;;;;47.08;12.55;;;29.30;83.40;;;;;;5086724;28;20088;-46
2022/05/22 02:00:16;;;;;;;54.03;11.60;;;29.30;83.40;;;;;;5086498;28;20024;-46
2022/05/22 02:02:43;;;;;;;43.85;11.38;;;29.30;84.00;;;;;;5086610;28;20111;-49
2022/05/22 02:05:10;;;;;;;41.38;11.75;;;29.30;83.40;;;;;;5086635;28;20208;-49
2022/05/22 02:10:24;;;;;;;52.03;11.80;;;29.30;83.40;;;;;;5086492;28;20036;-50
2022/05/22 02:12:53;;;;;;;46.78;11.50;;;29.30;83.40;;;;;;5086352;28;20016;-57
2022/05/22 02:15:21;;;;;;;38.20;10.57;;;29.30;83.40;;;;;;5086305;28;20016;-52
2022/05/22 02:17:47;;;;;;;40.08;11.02;;;29.20;83.10;;;;;;5086379;28;20023;-49
2022/05/22 02:20:14;;;;;;;47.20;11.43;;;29.20;83.10;;;;;;5086141;28;20054;-46
2022/05/22 02:22:46;;;;;;;44.67;11.68;;;29.20;82.80;;;;;;5086219;28;20042;-51
2022/05/22 02:25:16;;;;;;;44.17;11.07;;;29.20;82.70;;;;;;5086206;28;20025;-51
2022/05/22 02:27:46;;;;;;;42.00;11.25;;;29.10;82.40;;;;;;5084475;28;20028;-47
2022/05/22 02:30:15;;;;;;;47.30;12.10;;;29.10;82.40;;;;;;5084311;28;20095;-53
2022/05/22 02:32:42;;;;;;;47.40;11.25;;;29.10;82.30;;;;;;5084735;28;20305;-47
2022/05/22 02:35:11;;;;;;;45.15;11.40;;;29.10;82.30;;;;;;5084815;28;20023;-52
2022/05/22 02:37:46;;;;;;;42.08;11.65;;;29.00;82.20;;;;;;5085980;28;20024;-49
2022/05/22 02:40:15;;;;;;;51.55;12.40;;;29.00;82.20;;;;;;5085683;28;20044;-48
2022/05/22 02:42:44;;;;;;;45.72;11.77;;;29.00;82.00;;;;;;5086016;28;20047;-52
2022/05/22 02:45:12;;;;;;;49.28;11.90;;;29.00;81.90;;;;;;5085820;28;20058;-51
2022/05/22 02:47:39;;;;;;;44.45;11.27;;;29.00;81.50;;;;;;5085663;28;20055;-46
2022/05/22 02:50:10;;;;;;;44.33;11.63;;;28.90;81.40;;;;;;5085761;28;20021;-44
2022/05/22 02:52:39;;;;;;;47.33;12.15;;;28.90;81.00;;;;;;5085754;28;20102;-50
2022/05/22 02:55:08;;;;;;;38.95;10.55;;;28.90;81.00;;;;;;5086682;28;20024;-51
2022/05/22 02:57:38;;;;;;;38.53;10.55;;;28.90;81.10;;;;;;5086555;28;20020;-56
2022/05/22 03:00:09;;;;;;;41.45;10.93;;;28.90;80.50;;;;;;5085824;28;20058;-48
2022/05/22 03:02:36;;;;;;;34.67;9.73;;;28.90;80.70;;;;;;5085911;28;20059;-48
2022/05/22 03:05:02;;;;;;;46.95;10.90;;;28.90;80.60;;;;;;5085647;28;20017;-50
2022/05/22 03:07:29;;;;;;;46.78;10.95;;;28.80;80.30;;;;;;5085457;28;20082;-45
2022/05/22 03:10:00;;;;;;;38.85;10.07;;;28.80;80.10;;;;;;5084154;28;20301;-51
2022/05/22 03:12:26;;;;;;;36.13;10.60;;;28.80;80.20;;;;;;5085199;28;20024;-51
2022/05/22 03:14:55;;;;;;;38.47;10.38;;;28.80;80.10;;;;;;5083891;28;20044;-54
2022/05/22 03:17:23;;;;;;;42.63;10.85;;;28.80;79.80;;;;;;5085159;28;20020;-48
2022/05/22 03:19:50;;;;;;;40.17;10.32;;;28.80;79.70;;;;;;5083927;28;20145;-46
2022/05/22 03:22:17;;;;;;;38.28;9.73;;;28.80;79.60;;;;;;5084798;28;20013;-53
2022/05/22 03:24:44;;;;;;;40.90;10.15;;;28.70;79.30;;;;;;5085054;28;20051;-47
2022/05/22 03:27:16;;;;;;;41.42;10.75;;;28.70;79.40;;;;;;5084842;28;20208;-48
2022/05/22 03:29:44;;;;;;;44.90;10.55;;;28.70;79.20;;;;;;5085695;28;20024;-48
2022/05/22 03:32:14;;;;;;;48.20;11.20;;;28.70;79.40;;;;;;5089412;28;20438;-49
2022/05/22 03:34:42;;;;;;;49.00;10.25;;;28.70;79.50;;;;;;5096196;28;20051;-57
2022/05/22 03:37:09;;;;;;;44.03;10.30;;;28.60;79.50;;;;;;5090188;28;20024;-53
2022/05/22 03:39:36;;;;;;;47.15;10.30;;;28.60;79.70;;;;;;5091407;28;20201;-46
2022/05/22 03:42:03;;;;;;;43.45;10.00;;;28.60;79.80;;;;;;5085143;28;20047;-53
2022/05/22 03:44:31;;;;;;;41.53;11.98;;;28.70;80.10;;;;;;5085587;28;20372;-53
2022/05/22 03:46:58;;;;;;;56.53;27.77;;;28.70;80.20;;;;;;5090037;28;20402;-50
2022/05/22 03:49:25;;;;;;;67.28;36.90;;;28.70;80.20;;;;;;5084605;28;20024;-51
2022/05/22 03:51:52;;;;;;;80.88;52.63;;;28.60;79.90;;;;;;5083322;28;20020;-51
2022/05/22 03:54:19;;;;;;;95.70;65.00;;;28.60;80.00;;;;;;5083431;28;20047;-52
2022/05/22 03:56:45;;;;;;;83.95;57.90;;;28.60;79.80;;;;;;5084351;28;20083;-49
2022/05/22 03:59:12;;;;;;;76.18;48.17;;;28.60;79.90;;;;;;5084850;28;20040;-52
2022/05/22 04:01:39;;;;;;;101.10;71.65;;;28.60;80.10;;;;;;5084334;28;20035;-57
2022/05/22 04:04:05;;;;;;;83.60;56.83;;;28.60;80.20;;;;;;5084578;28;20051;-57
2022/05/22 04:06:32;;;;;;;61.17;31.90;;;28.50;80.10;;;;;;5084487;28;20217;-47
2022/05/22 04:08:58;;;;;;;51.63;22.23;;;28.50;80.20;;;;;;5084571;28;20032;-48
2022/05/22 04:11:25;;;;;;;49.60;18.15;;;28.50;80.30;;;;;;5084253;28;20079;-52
2022/05/22 04:13:52;;;;;;;49.08;15.60;;;28.50;80.20;;;;;;5084617;28;20091;-50
2022/05/22 04:16:18;;;;;;;41.47;14.48;;;28.50;80.20;;;;;;5083581;28;20020;-48
2022/05/22 04:18:45;;;;;;;41.72;13.40;;;28.50;80.20;;;;;;5084439;28;20024;-46
2022/05/22 04:21:12;;;;;;;41.22;12.27;;;28.50;80.40;;;;;;5083954;28;20016;-48
2022/05/22 04:26:31;;;;;;;45.17;10.90;;;28.40;80.40;;;;;;5083925;28;20027;-50
2022/05/22 04:28:58;;;;;;;41.45;10.45;;;28.40;80.20;;;;;;5084345;28;20035;-48
2022/05/22 04:31:24;;;;;;;46.80;10.90;;;28.40;80.30;;;;;;5083991;28;20054;-49
2022/05/22 04:33:51;;;;;;;32.97;10.50;;;28.40;80.30;;;;;;5084149;28;20025;-44
2022/05/22 04:36:18;;;;;;;45.50;11.15;;;28.40;80.20;;;;;;5083943;28;20023;-57
2022/05/22 04:38:44;;;;;;;44.75;10.88;;;28.40;80.40;;;;;;5084197;28;20052;-48
2022/05/22 04:41:11;;;;;;;43.50;10.68;;;28.30;80.40;;;;;;5083733;28;20044;-45
2022/05/22 04:43:38;;;;;;;40.72;10.40;;;28.30;80.30;;;;;;5084179;28;20035;-46
2022/05/22 04:46:08;;;;;;;44.33;12.40;;;28.30;80.30;;;;;;5083868;28;20016;-51
2022/05/22 04:48:35;;;;;;;53.47;14.98;;;28.30;80.40;;;;;;5083873;28;20032;-46
2022/05/22 04:51:02;;;;;;;47.53;15.15;;;28.30;80.40;;;;;;5083801;28;20012;-46
2022/05/22 04:53:29;;;;;;;47.97;14.52;;;28.30;80.40;;;;;;5087924;28;20023;-48
2022/05/22 04:55:56;;;;;;;46.75;14.18;;;28.30;80.30;;;;;;5087796;28;20017;-48
2022/05/22 04:58:23;;;;;;;43.60;11.57;;;28.30;80.30;;;;;;5088188;28;20226;-45
2022/05/22 05:00:50;;;;;;;41.70;11.60;;;28.30;80.20;;;;;;5087750;28;20073;-45
2022/05/22 05:03:16;;;;;;;43.63;11.63;;;28.20;80.20;;;;;;5087641;28;20048;-45
2022/05/22 05:05:43;;;;;;;42.53;11.52;;;28.20;80.20;;;;;;5087880;28;20048;-47
2022/05/22 05:08:09;;;;;;;44.92;12.07;;;28.20;80.10;;;;;;5087705;28;20091;-53
2022/05/22 05:10:36;;;;;;;41.67;11.32;;;28.20;80.10;;;;;;5087459;28;20305;-50
2022/05/22 05:13:03;;;;;;;38.00;11.50;;;28.20;79.90;;;;;;5087604;28;20048;-49
2022/05/22 05:15:29;;;;;;;39.70;10.80;;;28.20;79.60;;;;;;5087525;28;20021;-50
2022/05/22 05:17:56;;;;;;;39.35;11.88;;;28.10;79.60;;;;;;5087460;28;20047;-52
2022/05/22 05:20:23;;;;;;;36.15;10.90;;;28.10;79.60;;;;;;5087648;28;20221;-51
2022/05/22 05:22:50;;;;;;;39.80;10.48;;;28.20;79.80;;;;;;5087481;28;20029;-52
2022/05/22 05:25:17;;;;;;;47.70;11.18;;;28.10;79.80;;;;;;5087108;28;20200;-44
2022/05/22 05:27:44;;;;;;;37.17;9.63;;;28.10;79.90;;;;;;5087362;28;20029;-46
2022/05/22 05:30:12;;;;;;;43.53;11.00;;;28.10;80.10;;;;;;5087208;28;20083;-49
2022/05/22 05:32:38;;;;;;;37.00;11.00;;;28.10;80.20;;;;;;5087084;28;20027;-50
2022/05/22 05:35:09;;;;;;;38.90;10.23;;;28.10;80.20;;;;;;5087176;28;20312;-46
2022/05/22 05:37:36;;;;;;;39.92;11.15;;;28.00;80.10;;;;;;5087129;28;20028;-49
2022/05/22 05:40:04;;;;;;;40.80;10.98;;;28.00;80.30;;;;;;5086907;28;20013;-49
2022/05/22 05:42:35;;;;;;;34.22;10.10;;;28.00;80.40;;;;;;5087044;28;20012;-49
2022/05/22 05:45:06;;;;;;;41.75;11.02;;;28.00;80.50;;;;;;5086988;28;20008;-50
2022/05/22 05:47:33;;;;;;;35.13;9.80;;;28.00;80.50;;;;;;5086739;28;20019;-51
2022/05/22 05:50:00;;;;;;;40.17;10.30;;;27.90;80.40;;;;;;5086847;28;20243;-52
2022/05/22 05:52:26;;;;;;;38.50;10.48;;;27.90;80.10;;;;;;5086838;28;20021;-47
2022/05/22 05:54:53;;;;;;;38.85;10.32;;;27.90;79.70;;;;;;5086662;28;20209;-45
2022/05/22 05:57:19;;;;;;;45.97;10.35;;;27.90;79.40;;;;;;5086690;28;20096;-52
2022/05/22 05:59:46;;;;;;;45.70;11.20;;;27.90;79.10;;;;;;5086726;28;20088;-50
2022/05/22 06:02:13;;;;;;;40.42;9.95;;;27.90;78.90;;;;;;5086138;28;20116;-45
2022/05/22 06:04:41;;;;;;;48.83;11.48;;;27.90;78.60;;;;;;5086663;28;20209;-45
2022/05/22 06:07:09;;;;;;;45.88;9.77;;;27.80;78.70;;;;;;5086526;28;20020;-45
2022/05/22 06:09:36;;;;;;;31.13;9.00;;;27.80;78.60;;;;;;5086819;28;20364;-44
2022/05/22 06:12:04;;;;;;;42.03;10.40;;;27.80;78.70;;;;;;5086456;28;20025;-44
2022/05/22 06:14:31;;;;;;;39.95;10.40;;;27.80;78.70;;;;;;5086971;28;20328;-43
2022/05/22 06:16:58;;;;;;;38.75;10.25;;;27.80;78.50;;;;;;5086263;28;20324;-47
2022/05/22 06:22:13;;;;;;;43.40;10.98;;;27.80;78.30;;;;;;5086186;28;20057;-47
2022/05/22 06:24:40;;;;;;;39.33;10.43;;;27.80;78.20;;;;;;5086208;28;20035;-47
2022/05/22 06:27:06;;;;;;;45.58;10.15;;;27.70;78.20;;;;;;5086233;28;20284;-50
2022/05/22 06:29:33;;;;;;;35.00;10.27;;;27.70;78.30;;;;;;5086413;28;20028;-46
2022/05/22 06:31:59;;;;;;;33.78;9.88;;;27.70;78.30;;;;;;5086112;28;20044;-46
2022/05/22 06:34:26;;;;;;;42.78;10.77;;;27.70;78.10;;;;;;5086516;28;20024;-49
2022/05/22 06:36:53;;;;;;;37.85;9.68;;;27.60;78.00;;;;;;5085947;28;20016;-47
2022/05/22 06:42:11;;;;;;;38.65;10.35;;;27.70;78.10;;;;;;5085864;28;20034;-48
2022/05/22 06:44:37;;;;;;;42.55;10.43;;;27.70;77.90;;;;;;5086448;28;20182;-42
2022/05/22 06:47:05;;;;;;;42.70;10.80;;;27.60;77.90;;;;;;5085911;28;20034;-53
2022/05/22 06:49:32;;;;;;;40.08;10.73;;;27.60;77.90;;;;;;5086320;28;20028;-48
2022/05/22 06:51:58;;;;;;;44.35;10.55;;;27.60;77.90;;;;;;5085723;28;20009;-57
2022/05/22 06:54:25;;;;;;;39.70;10.35;;;27.60;77.90;;;;;;5086243;28;20059;-53
2022/05/22 06:56:52;;;;;;;44.88;10.63;;;27.60;77.90;;;;;;5085517;28;20021;-48
2022/05/22 06:59:19;;;;;;;37.20;10.05;;;27.60;77.90;;;;;;5086014;28;20369;-46
2022/05/22 07:01:45;;;;;;;42.65;10.57;;;27.60;77.80;;;;;;5085536;28;20024;-47
2022/05/22 07:04:12;;;;;;;40.10;10.07;;;27.60;77.80;;;;;;5085843;28;20053;-46
2022/05/22 07:06:38;;;;;;;43.33;9.85;;;27.60;77.80;;;;;;5085623;28;20027;-45
2022/05/22 07:09:05;;;;;;;40.30;10.15;;;27.60;77.60;;;;;;5085692;28;20032;-45
2022/05/22 07:11:41;;;;;;;44.63;10.30;;;27.50;76.90;;;;;;5085258;28;20020;-54
2022/05/22 07:14:09;;;;;;;48.53;10.45;;;27.50;76.90;;;;;;5085060;28;20186;-55
2022/05/22 07:16:39;;;;;;;39.30;10.82;;;27.50;76.70;;;;;;5085433;28;20358;-47
2022/05/22 07:19:07;;;;;;;47.50;10.20;;;27.50;76.30;;;;;;5085431;28;20033;-45
2022/05/22 07:21:34;;;;;;;39.92;9.88;;;27.50;76.50;;;;;;5085112;28;20016;-48
2022/05/22 07:24:00;;;;;;;40.95;9.48;;;27.50;76.30;;;;;;5085449;28;20032;-46
2022/05/22 07:26:28;;;;;;;46.20;10.20;;;27.50;76.10;;;;;;5084920;28;20016;-50
2022/05/22 07:28:58;;;;;;;42.38;10.43;;;27.50;75.80;;;;;;5085263;28;20032;-50
2022/05/22 07:31:26;;;;;;;39.65;9.77;;;27.50;75.90;;;;;;5084945;28;20149;-52
2022/05/22 07:33:53;;;;;;;43.13;10.32;;;27.50;75.70;;;;;;5085080;28;20047;-53
2022/05/22 07:36:21;;;;;;;41.97;10.85;;;27.50;75.50;;;;;;5084857;28;20016;-55
2022/05/22 07:38:48;;;;;;;42.20;10.48;;;27.50;75.40;;;;;;5085083;28;20029;-50
2022/05/22 07:41:16;;;;;;;45.33;10.63;;;27.50;75.20;;;;;;5084638;28;20031;-48
2022/05/22 07:43:43;;;;;;;41.92;11.30;;;27.40;75.20;;;;;;5084988;28;20268;-47
2022/05/22 07:46:14;;;;;;;37.25;10.00;;;27.40;74.90;;;;;;5084628;28;20134;-49
2022/05/22 07:48:42;;;;;;;41.75;10.95;;;27.40;74.70;;;;;;5084776;28;20202;-47
2022/05/22 07:51:11;;;;;;;41.95;10.70;;;27.40;74.30;;;;;;5084541;28;20017;-45
2022/05/22 07:53:37;;;;;;;36.80;10.45;;;27.40;74.50;;;;;;5084642;28;20024;-46
2022/05/22 07:56:04;;;;;;;42.13;11.10;;;27.40;74.30;;;;;;5084467;28;20035;-47
2022/05/22 07:58:31;;;;;;;45.63;11.10;;;27.40;74.00;;;;;;5084643;28;20047;-50
2022/05/22 08:00:59;;;;;;;46.85;11.77;;;27.40;74.00;;;;;;5084336;28;20017;-50
2022/05/22 08:03:26;;;;;;;45.67;11.20;;;27.40;73.90;;;;;;5084521;28;20067;-46
2022/05/22 08:05:55;;;;;;;50.45;11.73;;;27.40;74.00;;;;;;5084319;28;20016;-52
2022/05/22 08:08:23;;;;;;;47.83;10.65;;;27.40;74.00;;;;;;5084231;28;20070;-47
2022/05/22 08:10:51;;;;;;;44.33;11.38;;;27.40;73.90;;;;;;5084240;28;20378;-53
2022/05/22 08:13:18;;;;;;;49.85;11.00;;;27.40;73.80;;;;;;5084358;28;20027;-47
2022/05/22 08:15:44;;;;;;;49.35;11.05;;;27.30;73.70;;;;;;5084101;28;20020;-49
2022/05/22 08:18:12;;;;;;;51.47;11.02;;;27.40;73.70;;;;;;5084325;28;20027;-45
2022/05/22 08:20:40;;;;;;;40.88;9.93;;;27.30;73.60;;;;;;5084122;28;20024;-46
2022/05/22 08:23:09;;;;;;;49.65;11.75;;;27.30;73.50;;;;;;5083981;28;20020;-47
2022/05/22 08:25:36;;;;;;;44.28;10.90;;;27.30;73.60;;;;;;5084124;28;20047;-49
2022/05/22 08:28:04;;;;;;;46.20;11.20;;;27.30;73.70;;;;;;5084151;28;20028;-48
2022/05/22 08:30:32;;;;;;;43.20;10.95;;;27.30;73.40;;;;;;5083857;28;20088;-48
2022/05/22 08:32:59;;;;;;;47.95;11.25;;;27.30;73.50;;;;;;5084090;28;20016;-47
2022/05/22 08:35:29;;;;;;;44.88;10.85;;;27.30;73.40;;;;;;5083940;28;20058;-49
2022/05/22 08:37:56;;;;;;;45.78;11.68;;;27.30;73.50;;;;;;5083906;28;20024;-44
2022/05/22 08:40:24;;;;;;;48.60;11.60;;;27.30;73.40;;;;;;5083890;28;20029;-50
2022/05/22 08:43:06;;;;;;;48.50;10.98;;;27.30;73.50;;;;;;5083915;28;20192;-50
2022/05/22 08:45:51;;;;;;;46.33;12.17;;;27.30;73.30;;;;;;5083969;28;20103;-51
2022/05/22 08:48:32;;;;;;;49.97;11.75;;;27.30;73.20;;;;;;5083867;28;20032;-52
2022/05/22 08:51:00;;;;;;;44.92;11.23;;;27.20;73.10;;;;;;5083781;28;20016;-59
2022/05/22 08:53:33;;;;;;;52.83;11.55;;;27.20;73.40;;;;;;5084002;28;20083;-50
2022/05/22 08:59:14;;;;;;;52.33;11.68;;;27.20;73.70;;;;;;5083625;28;20095;-46
2022/05/22 09:02:03;;;;;;;41.75;11.05;;;27.20;74.40;;;;;;5083712;28;20021;-45
2022/05/22 09:04:44;;;;;;;50.45;12.48;;;27.20;74.90;;;;;;5084205;28;20044;-47
2022/05/22 09:07:28;;;;;;;41.05;10.90;;;27.20;75.20;;;;;;5083619;28;20020;-51
2022/05/22 09:10:12;;;;;;;43.35;10.77;;;27.20;75.40;;;;;;5083658;28;20092;-45
2022/05/22 09:12:57;;;;;;;54.22;12.35;;;27.20;75.60;;;;;;5083473;28;20028;-48
2022/05/22 09:15:38;;;;;;;47.55;11.10;;;27.20;75.40;;;;;;5094176;28;20020;-48
2022/05/22 09:18:18;;;;;;;56.10;12.77;;;27.20;75.20;;;;;;5099965;28;20028;-60
2022/05/22 09:20:50;;;;;;;42.92;10.93;;;27.10;75.00;;;;;;5103874;28;20057;-48
2022/05/22 09:23:38;;;;;;;49.67;11.98;;;27.10;75.00;;;;;;5103732;28;20016;-47
2022/05/22 09:26:07;;;;;;;57.20;12.05;;;27.10;75.00;;;;;;5103764;28;20051;-55
2022/05/22 09:28:52;;;;;;;49.65;12.48;;;27.10;75.10;;;;;;5103759;28;20215;-53
2022/05/22 09:31:31;;;;;;;53.92;11.68;;;27.10;74.90;;;;;;5103552;28;20016;-46
2022/05/22 09:34:12;;;;;;;49.45;12.63;;;27.10;74.70;;;;;;5104044;28;20029;-51
2022/05/22 09:36:42;;;;;;;57.40;12.93;;;27.10;74.90;;;;;;5103612;28;20088;-49
2022/05/22 09:39:21;;;;;;;63.35;12.82;;;27.10;74.90;;;;;;5106963;28;20024;-47
2022/05/22 09:41:57;;;;;;;56.53;13.75;;;27.10;75.10;;;;;;5107442;28;20083;-45
2022/05/22 09:44:48;;;;;;;60.63;13.77;;;27.10;75.70;;;;;;5107700;28;20028;-49
2022/05/22 09:47:33;;;;;;;58.75;13.75;;;27.10;75.90;;;;;;5107151;28;20020;-49
2022/05/22 09:50:09;;;;;;;63.60;13.23;;;27.00;75.80;;;;;;5107303;28;20269;-51
2022/05/22 09:52:54;;;;;;;53.22;12.50;;;27.00;75.90;;;;;;5105922;28;20181;-49
2022/05/22 09:55:53;;;;;;;52.80;12.32;;;27.00;76.00;;;;;;5107093;28;20016;-47
2022/05/22 09:58:28;;;;;;;51.90;12.75;;;27.00;76.00;;;;;;5089855;28;20099;-58
2022/05/22 10:01:10;;;;;;;51.35;13.20;;;27.00;76.10;;;;;;5107003;28;20015;-52
2022/05/22 10:04:14;;;;;;;51.85;12.23;;;27.00;76.00;;;;;;5107296;28;20044;-53
2022/05/22 10:06:50;;;;;;;53.90;12.85;;;27.00;75.90;;;;;;5106099;28;20122;-46
2022/05/22 10:09:35;;;;;;;57.63;13.90;;;27.00;75.80;;;;;;5105475;28;20032;-45
2022/05/22 10:12:25;;;;;;;54.55;12.07;;;27.00;75.60;;;;;;5105074;28;20479;-51
2022/05/22 10:14:57;;;;;;;52.53;13.50;;;27.00;75.60;;;;;;5055628;28;20104;-47
2022/05/22 10:17:50;;;;;;;59.75;13.32;;;27.00;75.60;;;;;;5084660;28;20038;-46
2022/05/22 10:20:21;;;;;;;51.47;13.10;;;27.00;75.60;;;;;;5084674;28;20032;-48
2022/05/22 10:22:56;;;;;;;55.33;13.05;;;27.00;75.90;;;;;;5086193;28;20084;-50
2022/05/22 10:25:41;;;;;;;55.80;13.68;;;26.90;76.00;;;;;;5086087;28;20166;-49
2022/05/22 10:28:22;;;;;;;57.75;13.88;;;27.00;76.10;;;;;;5086198;28;20020;-46
2022/05/22 10:31:19;;;;;;;55.22;13.77;;;27.00;76.00;;;;;;5086117;28;20023;-48
2022/05/22 10:33:54;;;;;;;52.40;13.68;;;27.00;76.00;;;;;;5085732;28;20032;-48
2022/05/22 10:36:30;;;;;;;60.33;14.10;;;27.00;76.10;;;;;;5086029;28;20078;-45
2022/05/22 10:39:06;;;;;;;51.67;13.65;;;26.90;76.10;;;;;;5086139;28;20293;-45
2022/05/22 10:44:39;;;;;;;53.00;13.43;;;26.90;76.40;;;;;;5082031;28;20031;-45
2022/05/22 10:47:07;;;;;;;64.18;14.05;;;26.90;76.60;;;;;;5084664;28;20031;-45
2022/05/22 10:49:43;;;;;;;52.17;13.20;;;26.90;76.70;;;;;;5085018;28;20024;-51
2022/05/22 10:52:13;;;;;;;53.97;13.30;;;26.90;76.70;;;;;;5085775;28;20305;-47
2022/05/22 10:54:48;;;;;;;50.63;12.93;;;26.90;76.70;;;;;;5085773;28;20021;-44
2022/05/22 10:57:37;;;;;;;58.28;13.90;;;26.90;76.70;;;;;;5085555;28;20020;-44
2022/05/22 11:00:15;;;;;;;61.33;13.25;;;26.90;76.90;;;;;;5085509;28;20021;-44
2022/05/22 11:02:42;;;;;;;52.40;14.30;;;26.90;77.10;;;;;;5085319;28;20059;-44
2022/05/22 11:05:27;;;;;;;58.08;13.32;;;26.90;77.40;;;;;;5085513;28;20017;-49
2022/05/22 11:07:57;;;;;;;51.40;13.48;;;26.90;77.60;;;;;;5085324;28;20127;-50
2022/05/22 11:10:29;;;;;;;52.97;13.57;;;26.90;77.50;;;;;;5085347;28;20024;-45
2022/05/22 11:13:11;;;;;;;48.88;13.45;;;27.00;77.50;;;;;;5085419;28;20070;-48
2022/05/22 11:15:42;;;;;;;49.95;14.20;;;27.00;77.50;;;;;;5085184;28;20051;-45
2022/05/22 11:18:10;;;;;;;54.65;14.48;;;27.10;77.40;;;;;;5085325;28;20027;-45
2022/05/22 11:21:23;;;;;;;58.13;13.88;;;27.10;77.00;;;;;;5085230;28;20035;-48
2022/05/22 11:24:13;;;;;;;58.17;13.18;;;27.20;76.80;;;;;;5085102;28;20099;-45
2022/05/22 11:27:00;;;;;;;54.33;14.00;;;27.20;76.70;;;;;;5085149;28;20024;-45
2022/05/22 11:30:01;;;;;;;59.80;13.95;;;27.10;76.50;;;;;;5084719;28;20026;-49
2022/05/22 11:32:58;;;;;;;64.22;14.52;;;27.20;76.80;;;;;;5084525;28;20027;-46
2022/05/22 11:35:34;;;;;;;55.25;13.77;;;27.20;76.80;;;;;;5084929;28;20012;-53
2022/05/22 11:38:23;;;;;;;54.30;14.32;;;27.30;77.00;;;;;;5084832;28;20028;-48
2022/05/22 11:40:49;;;;;;;56.58;13.95;;;27.30;76.90;;;;;;5084763;28;20030;-45
2022/05/22 11:43:24;;;;;;;60.72;14.10;;;27.40;77.00;;;;;;5084731;28;20020;-48
2022/05/22 11:46:11;;;;;;;49.22;13.38;;;27.30;77.00;;;;;;5084791;28;20031;-49
2022/05/22 11:48:56;;;;;;;58.03;14.20;;;27.40;77.40;;;;;;5084789;28;20314;-48
2022/05/22 11:52:01;;;;;;;57.92;15.57;;;27.30;77.50;;;;;;5084563;28;20016;-52
2022/05/22 11:54:40;;;;;;;55.20;14.48;;;27.30;77.60;;;;;;5085185;28;20024;-46
2022/05/22 11:57:16;;;;;;;52.17;14.48;;;27.30;77.80;;;;;;5084502;28;20106;-46
2022/05/22 11:59:58;;;;;;;53.85;15.10;;;27.30;77.90;;;;;;5084438;28;20103;-48
2022/05/22 12:02:50;;;;;;;55.80;14.52;;;27.40;78.20;;;;;;5084207;28;20102;-51
2022/05/22 12:05:57;;;;;;;57.92;14.70;;;27.40;78.30;;;;;;5084157;28;20044;-49
2022/05/22 12:08:59;;;;;;;50.60;15.18;;;27.50;78.50;;;;;;5083967;28;20020;-53
2022/05/22 12:11:31;;;;;;;53.55;15.15;;;27.50;78.60;;;;;;5084180;28;20017;-46
2022/05/22 12:14:22;;;;;;;52.50;16.02;;;27.60;78.60;;;;;;5084488;28;20021;-54
2022/05/22 12:17:22;;;;;;;61.60;17.38;;;27.60;78.50;;;;;;5084085;28;20090;-51
2022/05/22 12:19:52;;;;;;;50.92;15.40;;;27.60;78.50;;;;;;5083917;28;20105;-47
2022/05/22 12:22:20;;;;;;;60.17;15.38;;;27.70;78.50;;;;;;5084019;28;20059;-46
2022/05/22 12:24:57;;;;;;;52.13;16.10;;;27.70;78.50;;;;;;5098280;28;20035;-46
2022/05/22 12:27:36;;;;;;;50.13;15.73;;;27.80;78.50;;;;;;5083810;28;20036;-46
2022/05/22 12:30:10;;;;;;;52.70;15.30;;;27.80;78.50;;;;;;5084028;28;20029;-49
2022/05/22 12:33:04;;;;;;;52.47;15.52;;;27.80;78.50;;;;;;5083882;28;20077;-58
2022/05/22 12:35:32;;;;;;;50.13;14.32;;;27.80;78.40;;;;;;5070179;28;20358;-46
2022/05/22 12:38:07;;;;;;;49.15;14.00;;;27.90;78.40;;;;;;5083874;28;20198;-46
2022/05/22 12:40:59;;;;;;;59.60;15.05;;;27.90;78.40;;;;;;5083876;28;20024;-45
2022/05/22 12:43:26;;;;;;;53.30;14.82;;;27.90;78.40;;;;;;5082784;28;20230;-46
2022/05/22 12:46:01;;;;;;;48.15;14.18;;;27.90;78.50;;;;;;5083853;28;20055;-46
2022/05/22 12:48:34;;;;;;;48.75;12.63;;;28.00;78.70;;;;;;5083797;28;20021;-46
2022/05/22 12:51:21;;;;;;;46.40;13.05;;;28.00;78.70;;;;;;5083833;28;20380;-47
2022/05/22 12:53:54;;;;;;;54.10;14.52;;;28.00;78.60;;;;;;5083865;28;20017;-46
2022/05/22 12:56:31;;;;;;;52.85;13.13;;;28.00;78.60;;;;;;5083709;28;20016;-52
2022/05/22 12:59:03;;;;;;;54.30;13.38;;;28.00;78.40;;;;;;5083958;28;20020;-54
2022/05/22 13:01:37;;;;;;;47.53;14.10;;;28.10;78.40;;;;;;5083715;28;20036;-53
2022/05/22 13:04:17;;;;;;;49.17;12.93;;;28.10;78.50;;;;;;5084029;28;20052;-46
2022/05/22 13:07:14;;;;;;;43.70;12.95;;;28.10;78.50;;;;;;5083785;28;20320;-50
2022/05/22 13:09:47;;;;;;;44.85;13.48;;;28.10;78.20;;;;;;5083531;28;20033;-45
2022/05/22 13:12:13;;;;;;;50.10;13.77;;;28.10;78.30;;;;;;5083621;28;20016;-46